createdAt,value
2022-12-11T00:01:25.385Z,11.40
2022-12-11T00:03:52.054Z,11.82
2022-12-11T00:06:21.032Z,11.45
2022-12-11T00:08:47.940Z,11.43
2022-12-11T00:11:16.760Z,12.35
2022-12-11T00:13:43.701Z,11.80
2022-12-11T00:16:10.787Z,11.63
2022-12-11T00:18:37.529Z,11.68
2022-12-11T00:21:05.765Z,11.65
2022-12-11T00:23:34.217Z,12.18
2022-12-11T00:26:00.846Z,11.68
2022-12-11T00:28:27.427Z,11.70
2022-12-11T00:30:53.983Z,11.68
2022-12-11T00:33:20.370Z,12.80
2022-12-11T00:35:47.212Z,11.98
2022-12-11T00:38:19.105Z,11.23
2022-12-11T00:40:46.164Z,11.48
2022-12-11T00:43:12.822Z,12.05
2022-12-11T00:45:42.045Z,11.63
2022-12-11T00:48:09.077Z,12.60
2022-12-11T00:50:36.154Z,12.18
2022-12-11T00:53:04.475Z,11.88
2022-12-11T00:55:31.333Z,11.60
2022-12-11T00:57:58.357Z,11.73
2022-12-11T01:00:25.041Z,11.27
2022-12-11T01:02:51.701Z,11.73
2022-12-11T01:05:18.594Z,10.82
2022-12-11T01:07:45.119Z,11.13
2022-12-11T01:10:25.536Z,11.02
2022-12-11T01:13:01.220Z,10.45
2022-12-11T01:15:30.619Z,11.48
2022-12-11T01:17:57.505Z,11.18
2022-12-11T01:20:25.798Z,11.13
2022-12-11T01:22:53.885Z,11.90
2022-12-11T01:25:20.922Z,10.97
2022-12-11T01:27:47.276Z,10.65
2022-12-11T01:30:14.657Z,11.60
2022-12-11T01:32:41.009Z,12.30
2022-12-11T01:35:08.264Z,11.43
2022-12-11T01:37:34.969Z,11.45
2022-12-11T01:40:02.392Z,10.65
2022-12-11T01:42:29.728Z,11.00
2022-12-11T01:45:29.528Z,12.07
2022-12-11T01:48:02.375Z,11.10
2022-12-11T01:50:32.337Z,11.13
2022-12-11T01:52:59.184Z,10.82
2022-12-11T01:55:26.035Z,10.48
2022-12-11T01:57:53.140Z,10.10
2022-12-11T02:00:20.869Z,10.57
2022-12-11T02:02:47.750Z,11.25
2022-12-11T02:05:14.937Z,10.27
2022-12-11T02:07:51.564Z,10.80
2022-12-11T02:10:18.482Z,10.60
2022-12-11T02:12:57.668Z,10.27
2022-12-11T02:15:35.843Z,9.43
2022-12-11T02:18:11.173Z,9.82
2022-12-11T02:20:49.087Z,9.77
2022-12-11T02:23:43.244Z,10.05
2022-12-11T02:26:20.414Z,9.93
2022-12-11T02:28:51.877Z,8.60
2022-12-11T02:31:41.210Z,9.50
2022-12-11T02:34:13.428Z,9.48
2022-12-11T02:36:43.581Z,9.70
2022-12-11T02:39:14.430Z,9.05
2022-12-11T02:41:46.890Z,9.82
2022-12-11T02:44:16.148Z,9.40
2022-12-11T02:46:44.839Z,9.65
2022-12-11T02:49:13.672Z,9.50
2022-12-11T02:51:42.071Z,9.55
2022-12-11T02:54:15.365Z,9.23
2022-12-11T02:56:47.503Z,9.25
2022-12-11T02:59:52.589Z,8.68
2022-12-11T03:02:19.250Z,8.25
2022-12-11T03:04:48.369Z,8.32
2022-12-11T03:07:19.249Z,9.00
2022-12-11T03:09:47.613Z,8.65
2022-12-11T03:12:18.709Z,9.30
2022-12-11T03:14:45.633Z,9.10
2022-12-11T03:17:32.053Z,9.68
2022-12-11T03:20:26.762Z,9.40
2022-12-11T03:23:02.456Z,9.95
2022-12-11T03:25:38.939Z,9.70
2022-12-11T03:28:35.705Z,9.52
2022-12-11T03:31:07.984Z,9.15
2022-12-11T03:33:38.911Z,8.45
2022-12-11T03:36:10.133Z,10.13
2022-12-11T03:38:38.829Z,9.18
2022-12-11T03:41:07.821Z,10.35
2022-12-11T03:43:35.517Z,9.73
2022-12-11T03:46:02.434Z,9.50
2022-12-11T03:48:34.607Z,9.90
2022-12-11T03:51:05.303Z,8.93
2022-12-11T03:53:37.010Z,9.18
2022-12-11T03:56:07.147Z,9.40
2022-12-11T03:58:33.755Z,9.30
2022-12-11T04:01:00.492Z,9.75
2022-12-11T04:03:27.061Z,10.77
2022-12-11T04:05:55.368Z,10.13
2022-12-11T04:08:23.072Z,10.80
2022-12-11T04:11:09.835Z,10.20
2022-12-11T04:13:37.253Z,9.32
2022-12-11T04:16:04.117Z,9.70
2022-12-11T04:18:49.370Z,11.70
2022-12-11T04:21:39.225Z,11.05
2022-12-11T04:24:15.419Z,11.73
2022-12-11T04:26:47.304Z,11.60
2022-12-11T04:29:14.747Z,11.05
2022-12-11T04:31:41.550Z,11.90
2022-12-11T04:34:08.151Z,11.77
2022-12-11T04:36:34.550Z,12.13
2022-12-11T04:39:01.042Z,11.90
2022-12-11T04:41:27.406Z,12.73
2022-12-11T04:43:53.873Z,12.02
2022-12-11T04:46:22.769Z,11.95
2022-12-11T04:48:55.368Z,13.15
2022-12-11T04:51:23.987Z,13.18
2022-12-11T04:53:50.488Z,12.02
2022-12-11T04:56:17.132Z,13.25
2022-12-11T04:58:45.054Z,11.70
2022-12-11T05:01:17.493Z,12.93
2022-12-11T05:03:44.594Z,11.60
2022-12-11T05:06:11.810Z,13.38
2022-12-11T05:08:40.408Z,12.25
2022-12-11T05:11:09.905Z,12.23
2022-12-11T05:13:36.918Z,13.07
2022-12-11T05:16:08.631Z,12.30
2022-12-11T05:18:35.220Z,11.98
2022-12-11T05:21:06.901Z,11.88
2022-12-11T05:23:34.001Z,13.07
2022-12-11T05:26:03.720Z,12.23
2022-12-11T05:28:32.138Z,13.00
2022-12-11T05:31:06.051Z,12.15
2022-12-11T05:33:32.750Z,13.52
2022-12-11T05:35:59.282Z,13.02
2022-12-11T05:38:25.844Z,13.55
2022-12-11T05:40:57.933Z,13.88
2022-12-11T05:43:24.966Z,14.68
2022-12-11T05:45:51.514Z,14.82
2022-12-11T05:48:18.003Z,14.10
2022-12-11T05:50:44.510Z,12.68
2022-12-11T05:53:10.992Z,13.75
2022-12-11T05:55:37.512Z,13.70
2022-12-11T05:58:04.021Z,12.85
2022-12-11T06:00:35.879Z,12.43
2022-12-11T06:03:02.869Z,11.82
2022-12-11T06:05:29.524Z,12.68
2022-12-11T06:07:56.129Z,11.73
2022-12-11T06:10:22.639Z,11.40
2022-12-11T06:12:49.206Z,13.20
2022-12-11T06:15:15.766Z,11.85
2022-12-11T06:17:42.150Z,12.70
2022-12-11T06:20:08.965Z,11.60
2022-12-11T06:22:35.551Z,11.77
2022-12-11T06:25:02.029Z,12.30
2022-12-11T06:27:28.505Z,12.25
2022-12-11T06:29:54.823Z,12.98
2022-12-11T06:32:22.239Z,11.43
2022-12-11T06:34:48.778Z,11.95
2022-12-11T06:37:15.317Z,11.77
2022-12-11T06:39:41.849Z,11.35
2022-12-11T06:42:08.342Z,10.50
2022-12-11T06:44:34.822Z,10.48
2022-12-11T06:47:01.121Z,10.02
2022-12-11T06:49:27.619Z,11.52
2022-12-11T06:51:54.105Z,10.35
2022-12-11T06:54:20.630Z,10.45
2022-12-11T06:56:47.250Z,9.77
2022-12-11T06:59:13.794Z,11.18
2022-12-11T07:01:40.877Z,10.48
2022-12-11T07:04:09.185Z,10.02
2022-12-11T07:06:35.890Z,10.48
2022-12-11T07:09:05.365Z,11.68
2022-12-11T07:11:31.945Z,11.55
2022-12-11T07:14:01.215Z,11.60
2022-12-11T07:16:27.991Z,12.20
2022-12-11T07:18:54.537Z,13.45
2022-12-11T07:21:21.407Z,13.05
2022-12-11T07:23:49.034Z,14.07
2022-12-11T07:26:17.671Z,13.30
2022-12-11T07:28:44.766Z,13.32
2022-12-11T07:31:13.834Z,14.70
2022-12-11T07:33:41.037Z,14.13
2022-12-11T07:36:09.829Z,14.30
2022-12-11T07:38:36.936Z,13.48
2022-12-11T07:41:07.440Z,13.43
2022-12-11T07:43:35.353Z,13.30
2022-12-11T07:46:05.367Z,13.82
2022-12-11T07:48:32.186Z,13.00
2022-12-11T07:51:26.699Z,12.10
2022-12-11T07:53:58.209Z,13.27
2022-12-11T07:56:25.643Z,12.93
2022-12-11T07:58:52.181Z,12.65
2022-12-11T08:01:26.056Z,13.15
2022-12-11T08:03:53.782Z,12.75
2022-12-11T08:06:25.088Z,12.32
2022-12-11T08:08:51.573Z,13.60
2022-12-11T08:11:18.061Z,13.93
2022-12-11T08:13:45.021Z,14.43
2022-12-11T08:16:13.636Z,14.23
2022-12-11T08:18:40.897Z,15.52
2022-12-11T08:21:13.241Z,18.90
2022-12-11T08:23:39.947Z,18.50
2022-12-11T08:26:09.285Z,17.65
2022-12-11T08:28:35.811Z,18.05
2022-12-11T08:31:05.693Z,17.33
2022-12-11T08:33:32.317Z,16.80
2022-12-11T08:35:58.832Z,17.58
2022-12-11T08:38:25.793Z,25.05
2022-12-11T08:40:52.346Z,26.55
2022-12-11T08:43:18.871Z,23.20
2022-12-11T08:45:46.740Z,18.05
2022-12-11T08:48:13.389Z,19.48
2022-12-11T08:50:39.710Z,23.17
2022-12-11T08:53:06.130Z,17.05
2022-12-11T08:55:33.486Z,13.15
2022-12-11T08:58:00.538Z,11.35
2022-12-11T09:00:26.857Z,9.82
2022-12-11T09:02:53.389Z,10.60
2022-12-11T09:05:19.925Z,9.93
2022-12-11T09:07:46.838Z,9.52
2022-12-11T09:10:13.229Z,9.15
2022-12-11T09:12:39.693Z,8.40
2022-12-11T09:15:06.681Z,8.82
2022-12-11T09:17:34.566Z,7.57
2022-12-11T09:20:01.845Z,8.02
2022-12-11T09:22:28.625Z,9.00
2022-12-11T09:24:55.159Z,7.88
2022-12-11T09:27:22.071Z,8.90
2022-12-11T09:29:48.453Z,8.07
2022-12-11T09:32:14.826Z,7.97
2022-12-11T09:34:41.122Z,7.63
2022-12-11T09:37:07.779Z,8.20
2022-12-11T09:39:34.346Z,8.20
2022-12-11T09:42:00.717Z,8.45
2022-12-11T09:44:51.850Z,7.30
2022-12-11T09:47:28.933Z,7.28
2022-12-11T09:50:13.210Z,6.03
2022-12-11T09:52:55.425Z,6.35
2022-12-11T09:55:24.454Z,6.10
2022-12-11T09:58:11.546Z,6.30
2022-12-11T10:00:48.125Z,7.72
2022-12-11T10:03:31.093Z,6.60
2022-12-11T10:06:22.086Z,6.65
2022-12-11T10:08:53.769Z,6.43
2022-12-11T10:11:23.276Z,6.10
2022-12-11T10:14:14.388Z,7.70
2022-12-11T10:16:51.650Z,5.50
2022-12-11T10:19:27.780Z,5.25
2022-12-11T10:21:55.673Z,6.10
2022-12-11T10:25:07.669Z,6.28
2022-12-11T10:27:22.455Z,6.53
2022-12-11T10:29:57.108Z,6.55
2022-12-11T10:32:29.441Z,8.40
2022-12-11T10:35:05.501Z,6.82
2022-12-11T10:37:31.858Z,6.47
2022-12-11T10:39:58.207Z,7.82
2022-12-11T10:42:24.690Z,7.78
2022-12-11T10:45:00.930Z,6.35
2022-12-11T10:47:28.474Z,7.22
2022-12-11T10:49:58.417Z,7.27
2022-12-11T10:52:29.708Z,7.22
2022-12-11T10:55:03.199Z,8.02
2022-12-11T10:57:35.864Z,8.23
2022-12-11T11:00:05.044Z,8.85
2022-12-11T11:02:36.012Z,8.20
2022-12-11T11:05:17.181Z,9.48
2022-12-11T11:07:44.036Z,7.47
2022-12-11T11:10:10.709Z,7.13
2022-12-11T11:12:49.083Z,8.90
2022-12-11T11:15:23.326Z,9.80
2022-12-11T11:17:56.315Z,9.13
2022-12-11T11:20:26.446Z,8.93
2022-12-11T11:22:56.886Z,6.70
2022-12-11T11:25:26.018Z,7.50
2022-12-11T11:28:04.789Z,8.60
2022-12-11T11:30:35.797Z,10.07
2022-12-11T11:33:16.067Z,9.35
2022-12-11T11:35:55.286Z,8.77
2022-12-11T11:38:26.683Z,8.68
2022-12-11T11:41:05.670Z,9.00
2022-12-11T11:43:55.201Z,8.35
2022-12-11T11:46:32.319Z,8.95
2022-12-11T11:49:19.075Z,7.30
2022-12-11T11:52:01.564Z,8.45
2022-12-11T11:54:46.790Z,7.32
2022-12-11T11:57:35.537Z,6.80
2022-12-11T12:00:09.780Z,6.60
2022-12-11T12:02:37.046Z,5.20
2022-12-11T12:05:03.879Z,6.05
2022-12-11T12:08:03.720Z,7.75
2022-12-11T12:10:38.041Z,8.82
2022-12-11T12:13:47.579Z,9.07
2022-12-11T12:16:17.814Z,4.47
2022-12-11T12:19:22.705Z,6.03
2022-12-11T12:21:52.840Z,7.00
2022-12-11T12:24:33.434Z,8.20
2022-12-11T12:27:52.079Z,9.60
2022-12-11T12:30:22.358Z,9.00
2022-12-11T12:33:14.990Z,8.63
2022-12-11T12:36:05.077Z,9.68
2022-12-11T12:38:48.495Z,10.48
2022-12-11T12:41:29.154Z,10.48
2022-12-11T12:44:07.925Z,9.68
2022-12-11T12:46:49.193Z,12.35
2022-12-11T12:49:46.300Z,11.73
2022-12-11T12:52:20.690Z,11.75
2022-12-11T12:55:11.293Z,9.02
2022-12-11T12:57:40.522Z,9.60
2022-12-11T13:00:13.291Z,9.77
2022-12-11T13:02:50.957Z,11.10
2022-12-11T13:05:24.067Z,10.88
2022-12-11T13:07:56.856Z,11.50
2022-12-11T13:10:26.527Z,11.32
2022-12-11T13:12:53.543Z,11.57
2022-12-11T13:15:43.881Z,12.27
2022-12-11T13:18:31.144Z,10.98
2022-12-11T13:20:57.482Z,10.07
2022-12-11T13:23:42.270Z,10.23
2022-12-11T13:26:09.294Z,10.73
2022-12-11T13:28:38.760Z,10.82
2022-12-11T13:31:30.424Z,9.43
2022-12-11T13:34:03.336Z,9.57
2022-12-11T13:36:37.739Z,9.23
2022-12-11T13:39:18.583Z,9.40
2022-12-11T13:41:53.823Z,8.50
2022-12-11T13:44:26.106Z,8.02
2022-12-11T13:46:55.819Z,9.23
2022-12-11T13:49:26.792Z,8.82
2022-12-11T13:51:59.111Z,9.32
2022-12-11T13:54:27.040Z,8.95
2022-12-11T13:57:22.039Z,8.30
2022-12-11T13:59:54.559Z,8.45
2022-12-11T14:02:26.879Z,8.75
2022-12-11T14:05:00.892Z,10.15
2022-12-11T14:07:31.251Z,8.80
2022-12-11T14:10:05.980Z,9.77
2022-12-11T14:12:32.781Z,8.68
2022-12-11T14:15:01.996Z,7.90
2022-12-11T14:17:31.642Z,7.97
2022-12-11T14:20:00.449Z,7.82
2022-12-11T14:22:29.395Z,8.32
2022-12-11T14:25:03.586Z,9.05
2022-12-11T14:27:30.687Z,8.98
2022-12-11T14:29:57.321Z,9.15
2022-12-11T14:32:36.957Z,8.80
2022-12-11T14:35:07.355Z,10.18
2022-12-11T14:37:36.565Z,8.65
2022-12-11T14:40:07.469Z,9.13
2022-12-11T14:42:48.047Z,8.38
2022-12-11T14:45:33.438Z,8.13
2022-12-11T14:48:08.317Z,7.97
2022-12-11T14:50:48.457Z,7.47
2022-12-11T14:53:23.405Z,7.00
2022-12-11T14:55:50.712Z,8.90
2022-12-11T14:58:22.609Z,9.07
2022-12-11T15:01:07.009Z,9.15
2022-12-11T15:03:37.484Z,7.90
2022-12-11T15:06:23.688Z,8.38
2022-12-11T15:08:50.298Z,8.10
2022-12-11T15:11:18.628Z,6.97
2022-12-11T15:13:53.252Z,7.72
2022-12-11T15:16:20.987Z,8.20
2022-12-11T15:18:50.657Z,7.55
2022-12-11T15:21:19.093Z,8.10
2022-12-11T15:23:52.620Z,6.20
2022-12-11T15:26:21.609Z,6.55
2022-12-11T15:28:48.225Z,7.95
2022-12-11T15:31:26.794Z,7.80
2022-12-11T15:33:53.568Z,8.80
2022-12-11T15:36:35.344Z,7.80
2022-12-11T15:39:04.212Z,8.55
2022-12-11T15:44:24.284Z,8.77
2022-12-11T15:46:50.946Z,11.23
2022-12-11T15:49:18.873Z,10.40
2022-12-11T15:51:45.912Z,9.60
2022-12-11T15:54:12.295Z,9.38
2022-12-11T15:56:39.983Z,10.43
2022-12-11T15:59:06.970Z,9.48
2022-12-11T16:01:34.092Z,11.02
2022-12-11T16:04:04.907Z,11.32
2022-12-11T16:06:31.941Z,14.05
2022-12-11T16:08:58.463Z,16.10
2022-12-11T16:11:24.958Z,15.43
2022-12-11T16:13:51.456Z,13.73
2022-12-11T16:16:17.975Z,17.33
2022-12-11T16:18:44.525Z,18.00
2022-12-11T16:21:11.029Z,16.38
2022-12-11T16:23:37.467Z,17.13
2022-12-11T16:26:09.302Z,15.82
2022-12-11T16:28:35.793Z,15.30
2022-12-11T16:31:02.336Z,16.08
2022-12-11T16:33:28.969Z,16.00
2022-12-11T16:35:55.485Z,14.10
2022-12-11T16:38:21.991Z,11.63
2022-12-11T16:40:48.374Z,11.27
2022-12-11T16:43:15.040Z,12.40
2022-12-11T16:45:42.913Z,13.73
2022-12-11T16:48:09.441Z,13.02
2022-12-11T16:50:36.594Z,13.93
2022-12-11T16:53:03.073Z,12.98
2022-12-11T16:55:29.559Z,13.50
2022-12-11T16:57:56.057Z,13.98
2022-12-11T17:00:22.929Z,13.60
2022-12-11T17:02:49.531Z,14.05
2022-12-11T17:05:16.235Z,13.90
2022-12-11T17:07:43.011Z,13.93
2022-12-11T17:10:10.668Z,14.25
2022-12-11T17:12:37.293Z,14.98
2022-12-11T17:15:03.977Z,13.50
2022-12-11T17:17:30.614Z,16.10
2022-12-11T17:19:57.094Z,14.93
2022-12-11T17:22:23.486Z,13.95
2022-12-11T17:24:49.857Z,12.80
2022-12-11T17:27:16.753Z,14.00
2022-12-11T17:29:43.285Z,12.70
2022-12-11T17:32:09.826Z,13.27
2022-12-11T17:34:38.421Z,14.07
2022-12-11T17:37:05.928Z,14.40
2022-12-11T17:39:32.752Z,13.70
2022-12-11T17:41:59.295Z,13.60
2022-12-11T17:44:26.910Z,13.55
2022-12-11T17:46:53.615Z,11.82
2022-12-11T17:49:20.133Z,12.52
2022-12-11T17:51:46.709Z,11.40
2022-12-11T17:54:13.335Z,11.85
2022-12-11T17:56:40.657Z,12.82
2022-12-11T17:59:07.404Z,11.18
2022-12-11T18:01:33.879Z,10.23
2022-12-11T18:04:02.007Z,10.80
2022-12-11T18:06:29.450Z,11.05
2022-12-11T18:08:56.522Z,10.55
2022-12-11T18:11:24.448Z,10.30
2022-12-11T18:13:53.636Z,10.82
2022-12-11T18:16:38.920Z,10.13
2022-12-11T18:19:08.555Z,10.52
2022-12-11T18:21:40.490Z,11.25
2022-12-11T18:24:08.725Z,10.70
2022-12-11T18:26:35.609Z,12.30
2022-12-11T18:29:02.169Z,14.23
2022-12-11T18:31:28.709Z,14.10
2022-12-11T18:33:55.340Z,14.13
2022-12-11T18:36:21.981Z,13.70
2022-12-11T18:38:49.072Z,12.73
2022-12-11T18:41:17.192Z,11.35
2022-12-11T18:43:44.182Z,11.57
2022-12-11T18:46:14.456Z,11.57
2022-12-11T18:48:42.301Z,11.13
2022-12-11T18:51:11.281Z,11.05
2022-12-11T18:53:41.561Z,10.77
2022-12-11T18:56:11.112Z,12.00
2022-12-11T18:58:37.960Z,12.15
2022-12-11T19:01:22.986Z,11.98
2022-12-11T19:03:51.378Z,11.15
2022-12-11T19:06:21.078Z,12.20
2022-12-11T19:08:48.355Z,11.77
2022-12-11T19:11:17.504Z,11.20
2022-12-11T19:13:44.398Z,12.95
2022-12-11T19:16:19.138Z,12.98
2022-12-11T19:18:45.841Z,15.23
2022-12-11T19:21:13.490Z,14.20
2022-12-11T19:23:40.337Z,13.07
2022-12-11T19:26:14.648Z,12.65
2022-12-11T19:28:41.718Z,11.50
2022-12-11T19:31:10.832Z,12.20
2022-12-11T19:33:37.405Z,12.43
2022-12-11T19:36:13.796Z,13.10
2022-12-11T19:38:42.848Z,11.88
2022-12-11T19:41:13.855Z,10.88
2022-12-11T19:43:40.415Z,11.77
2022-12-11T19:46:08.372Z,12.00
2022-12-11T19:48:37.556Z,13.55
2022-12-11T19:51:06.279Z,15.38
2022-12-11T19:53:33.912Z,13.57
2022-12-11T19:56:00.333Z,12.27
2022-12-11T19:58:27.016Z,11.98
2022-12-11T20:00:53.800Z,11.68
2022-12-11T20:03:20.637Z,11.65
2022-12-11T20:05:47.228Z,12.48
2022-12-11T20:08:35.703Z,12.53
2022-12-11T20:11:12.814Z,13.55
2022-12-11T20:13:43.212Z,13.20
2022-12-11T20:16:10.768Z,13.35
2022-12-11T20:18:38.002Z,14.38
2022-12-11T20:21:07.977Z,15.85
2022-12-11T20:23:35.335Z,15.63
2022-12-11T20:26:12.641Z,13.80
2022-12-11T20:28:39.630Z,14.05
2022-12-11T20:31:18.089Z,13.52
2022-12-11T20:33:46.099Z,13.18
2022-12-11T20:36:14.722Z,13.45
2022-12-11T20:38:41.932Z,11.80
2022-12-11T20:41:10.381Z,12.20
2022-12-11T20:43:37.854Z,13.70
2022-12-11T20:46:10.331Z,13.32
2022-12-11T20:48:37.362Z,13.38
2022-12-11T20:51:05.529Z,13.55
2022-12-11T20:53:32.161Z,13.07
2022-12-11T20:55:58.643Z,13.63
2022-12-11T20:58:25.239Z,14.55
2022-12-11T21:00:51.856Z,14.48
2022-12-11T21:03:18.344Z,15.50
2022-12-11T21:05:45.861Z,14.85
2022-12-11T21:08:13.201Z,17.77
2022-12-11T21:10:44.585Z,15.95
2022-12-11T21:13:11.155Z,19.17
2022-12-11T21:15:39.243Z,22.25
2022-12-11T21:18:06.983Z,23.65
2022-12-11T21:20:33.623Z,22.48
2022-12-11T21:23:00.202Z,16.77
2022-12-11T21:25:26.864Z,16.15
2022-12-11T21:27:53.355Z,17.95
2022-12-11T21:30:19.936Z,16.73
2022-12-11T21:32:47.252Z,17.50
2022-12-11T21:35:14.364Z,15.77
2022-12-11T21:37:41.777Z,16.00
2022-12-11T21:40:09.302Z,15.85
2022-12-11T21:42:35.837Z,15.35
2022-12-11T21:47:50.265Z,15.07
2022-12-11T21:50:17.037Z,14.85
2022-12-11T21:52:43.453Z,15.95
2022-12-11T21:55:11.969Z,16.35
2022-12-11T21:57:38.663Z,17.90
2022-12-11T22:00:05.999Z,17.38
2022-12-11T22:02:36.068Z,18.38
2022-12-11T22:05:07.844Z,15.48
2022-12-11T22:07:34.212Z,15.77
2022-12-11T22:10:00.723Z,17.10
2022-12-11T22:12:28.401Z,17.75
2022-12-11T22:14:55.512Z,15.63
2022-12-11T22:17:23.049Z,18.27
2022-12-11T22:19:52.002Z,18.73
2022-12-11T22:22:19.304Z,17.55
2022-12-11T22:24:46.432Z,15.18
2022-12-11T22:27:13.064Z,16.00
2022-12-11T22:29:39.430Z,18.13
2022-12-11T22:32:05.970Z,16.48
2022-12-11T22:34:32.495Z,14.80
2022-12-11T22:36:58.880Z,15.18
2022-12-11T22:39:25.227Z,15.90
2022-12-11T22:41:51.663Z,17.23
2022-12-11T22:44:20.502Z,15.18
2022-12-11T22:46:50.301Z,15.55
2022-12-11T22:49:18.790Z,14.75
2022-12-11T22:51:45.322Z,15.18
2022-12-11T22:54:11.917Z,15.20
2022-12-11T22:56:38.659Z,14.25
2022-12-11T22:59:05.189Z,14.50
2022-12-11T23:01:31.778Z,13.75
2022-12-11T23:03:58.270Z,14.10
2022-12-11T23:06:25.084Z,14.00
2022-12-11T23:08:55.215Z,15.07
2022-12-11T23:11:30.946Z,13.70
2022-12-11T23:13:57.945Z,14.35
2022-12-11T23:16:25.803Z,14.85
2022-12-11T23:18:52.477Z,14.45
2022-12-11T23:21:19.178Z,13.90
2022-12-11T23:23:45.838Z,14.00
2022-12-11T23:26:14.063Z,13.50
2022-12-11T23:28:41.438Z,14.02
2022-12-11T23:31:08.884Z,14.18
2022-12-11T23:33:35.557Z,13.68
2022-12-11T23:36:02.353Z,13.40
2022-12-11T23:38:29.057Z,11.98
2022-12-11T23:40:55.862Z,13.05
2022-12-11T23:43:22.452Z,13.27
2022-12-11T23:45:49.110Z,12.38
2022-12-11T23:48:15.715Z,13.25
2022-12-11T23:50:43.686Z,13.77
2022-12-11T23:53:11.423Z,13.25
2022-12-11T23:55:40.214Z,12.77
2022-12-11T23:58:06.965Z,12.77
